WXM80 ListenWXM80 Stop

You find our weather info also at:

UK Metoffice

WeatherCloud

Weather Underground

Northeastern Weather Network

AWEKAS

Citizen Weather Observer Program (CWOP)

HAMweather, WeatherForYou, PWS Weather


Weather Underground History page Text

Daily Summary for November 8, 2017 Units:  Both    English   Metric
« Previous Day
Next Day »
Daily Weekly Monthly Yearly Custom
  High: Low: Average:
Temperature: 48.2 °F /  9 °C 40.4 °F /  4.7 °C 44.3 °F /  6.8 °C
Dew Point: 41.7 °F /  5.4 °C 37.4 °F /  3 °C 40 °F /  4.4 °C
Humidity: 96 % 74 % 85 %
Wind Speed: 15.1 mph /  24.3 km/h - 4.2 mph /  6.8 km/h
Wind Gust: 21.9 mph /  35.2 km/h - -
Wind:- - ENE
Pressure: 30.26 in /  1024.6 hPa 30.00 in /  1015.8 hPa -
Precipitation: 0.27 in /  6.86 mm    
Historical Graphs
 
 
Tabular Data for November 8, 2017
Time Temperature Dew Point Pressure Wind Wind Speed Wind Gust Humidity Rainfall Rate (Hourly)
00:04 42.4 °F /  5.8 °C 41.3 °F /  5.2 °C 30.15 in /  1020.9 hPa NE 6.0 mph /  9.7 km/h 10.4 mph /  16.7 km/h 96 % 0.02 in /  0.51 mm
00:09 42.4 °F /  5.8 °C 41.3 °F /  5.2 °C 30.15 in /  1020.9 hPa NNE 6.0 mph /  9.7 km/h 11.5 mph /  18.5 km/h 96 % 0.02 in /  0.51 mm
00:14 42.4 °F /  5.8 °C 41.3 °F /  5.2 °C 30.14 in /  1020.5 hPa East 5.6 mph /  9 km/h 15.0 mph /  24.1 km/h 96 % 0.02 in /  0.51 mm
00:19 42.3 °F /  5.7 °C 41.2 °F /  5.1 °C 30.14 in /  1020.5 hPa NE 4.5 mph /  7.2 km/h 11.5 mph /  18.5 km/h 96 % 0.01 in /  0.25 mm
00:24 42.3 °F /  5.7 °C 41.2 °F /  5.1 °C 30.14 in /  1020.5 hPa NNE 9.1 mph /  14.6 km/h 18.4 mph /  29.6 km/h 96 % 0.01 in /  0.25 mm
00:29 42.2 °F /  5.7 °C 41.1 °F /  5.1 °C 30.14 in /  1020.5 hPa NNE 4.7 mph /  7.6 km/h 8.1 mph /  13 km/h 96 % 0.01 in /  0.25 mm
00:34 42.2 °F /  5.7 °C 41.1 °F /  5.1 °C 30.15 in /  1020.9 hPa NE 7.1 mph /  11.4 km/h 12.0 mph /  19.3 km/h 96 % 0.01 in /  0.25 mm
00:39 42.2 °F /  5.7 °C 41.1 °F /  5.1 °C 30.14 in /  1020.5 hPa NNE 6.2 mph /  10 km/h 11.5 mph /  18.5 km/h 96 % 0.01 in /  0.25 mm
00:44 42.1 °F /  5.6 °C 41.0 °F /  5 °C 30.14 in /  1020.5 hPa ENE 5.2 mph /  8.4 km/h 7.0 mph /  11.3 km/h 96 % 0.02 in /  0.51 mm
00:49 42.0 °F /  5.6 °C 40.9 °F /  4.9 °C 30.14 in /  1020.5 hPa NNE 6.9 mph /  11.1 km/h 12.7 mph /  20.4 km/h 96 % 0.02 in /  0.51 mm
00:54 42.0 °F /  5.6 °C 40.9 °F /  4.9 °C 30.14 in /  1020.5 hPa North 7.4 mph /  11.9 km/h 13.8 mph /  22.2 km/h 96 % 0.02 in /  0.51 mm
00:59 42.0 °F /  5.6 °C 40.9 °F /  4.9 °C 30.14 in /  1020.5 hPa NNE 6.4 mph /  10.3 km/h 11.5 mph /  18.5 km/h 96 % 0.02 in /  0.51 mm
01:04 41.9 °F /  5.5 °C 40.8 °F /  4.9 °C 30.14 in /  1020.5 hPa NE 8.1 mph /  13 km/h 12.0 mph /  19.3 km/h 96 % 0.01 in /  0.25 mm
01:09 41.9 °F /  5.5 °C 40.8 °F /  4.9 °C 30.14 in /  1020.5 hPa North 5.1 mph /  8.2 km/h 8.1 mph /  13 km/h 96 % 0.01 in /  0.25 mm
01:14 41.9 °F /  5.5 °C 40.8 °F /  4.9 °C 30.15 in /  1020.9 hPa North 4.8 mph /  7.7 km/h 6.9 mph /  11.1 km/h 96 % 0.01 in /  0.25 mm
01:19 42.0 °F /  5.6 °C 40.9 °F /  4.9 °C 30.14 in /  1020.5 hPa East 5.9 mph /  9.5 km/h 9.2 mph /  14.8 km/h 96 % 0.01 in /  0.25 mm
01:24 42.0 °F /  5.6 °C 40.9 °F /  4.9 °C 30.14 in /  1020.5 hPa North 5.9 mph /  9.5 km/h 9.2 mph /  14.8 km/h 96 % 0.02 in /  0.51 mm
01:29 41.9 °F /  5.5 °C 40.8 °F /  4.9 °C 30.15 in /  1020.9 hPa NNE 6.9 mph /  11.1 km/h 11.5 mph /  18.5 km/h 96 % 0.02 in /  0.51 mm
01:34 41.9 °F /  5.5 °C 40.8 °F /  4.9 °C 30.15 in /  1020.9 hPa NNE 7.3 mph /  11.7 km/h 12.0 mph /  19.3 km/h 96 % 0.02 in /  0.51 mm
01:39 41.8 °F /  5.4 °C 40.7 °F /  4.8 °C 30.16 in /  1021.2 hPa North 9.1 mph /  14.6 km/h 15.0 mph /  24.1 km/h 96 % 0.02 in /  0.51 mm
01:44 41.8 °F /  5.4 °C 40.7 °F /  4.8 °C 30.15 in /  1020.9 hPa NNE 5.2 mph /  8.4 km/h 11.5 mph /  18.5 km/h 96 % 0.01 in /  0.25 mm
01:49 41.9 °F /  5.5 °C 40.8 °F /  4.9 °C 30.15 in /  1020.9 hPa NNE 5.5 mph /  8.9 km/h 11.5 mph /  18.5 km/h 96 % 0.01 in /  0.25 mm
01:54 41.8 °F /  5.4 °C 40.7 °F /  4.8 °C 30.15 in /  1020.9 hPa NNE 4.5 mph /  7.2 km/h 7.0 mph /  11.3 km/h 96 % 0.01 in /  0.25 mm
01:59 41.6 °F /  5.3 °C 40.5 °F /  4.7 °C 30.15 in /  1020.9 hPa NE 5.8 mph /  9.3 km/h 11.0 mph /  17.7 km/h 96 % 0.01 in /  0.25 mm
02:04 41.7 °F /  5.4 °C 40.6 °F /  4.8 °C 30.15 in /  1020.9 hPa NNE 7.8 mph /  12.6 km/h 15.0 mph /  24.1 km/h 96 % 0.01 in /  0.25 mm
02:09 41.6 °F /  5.3 °C 40.5 °F /  4.7 °C 30.15 in /  1020.9 hPa North 10.3 mph /  16.6 km/h 19.0 mph /  30.6 km/h 96 % 0.02 in /  0.51 mm
02:14 41.6 °F /  5.3 °C 40.5 °F /  4.7 °C 30.15 in /  1020.9 hPa NNE 8.8 mph /  14.2 km/h 18.4 mph /  29.6 km/h 96 % 0.02 in /  0.51 mm
02:24 41.4 °F /  5.2 °C 40.3 °F /  4.6 °C 30.15 in /  1020.9 hPa NE 10.1 mph /  16.3 km/h 16.1 mph /  25.9 km/h 96 % 0.01 in /  0.25 mm
02:29 41.3 °F /  5.2 °C 40.2 °F /  4.6 °C 30.15 in /  1020.9 hPa NNE 6.1 mph /  9.8 km/h 11.5 mph /  18.5 km/h 96 % 0.01 in /  0.25 mm
02:34 41.3 °F /  5.2 °C 40.2 °F /  4.6 °C 30.15 in /  1020.9 hPa NE 7.2 mph /  11.6 km/h 16.1 mph /  25.9 km/h 96 % 0.01 in /  0.25 mm
02:39 41.2 °F /  5.1 °C 39.9 °F /  4.4 °C 30.15 in /  1020.9 hPa NE 11.4 mph /  18.3 km/h 15.0 mph /  24.1 km/h 95 % 0.01 in /  0.25 mm
02:45 41.0 °F /  5 °C 39.7 °F /  4.3 °C 30.14 in /  1020.5 hPa NE 10.6 mph /  17.1 km/h 19.6 mph /  31.5 km/h 95 % 0.01 in /  0.25 mm
02:50 40.9 °F /  4.9 °C 39.6 °F /  4.2 °C 30.14 in /  1020.5 hPa North 15.1 mph /  24.3 km/h 21.9 mph /  35.2 km/h 95 % 0.02 in /  0.51 mm
02:55 40.8 °F /  4.9 °C 39.5 °F /  4.2 °C 30.15 in /  1020.9 hPa ENE 11.0 mph /  17.7 km/h 16.1 mph /  25.9 km/h 95 % 0.02 in /  0.51 mm
03:00 40.7 °F /  4.8 °C 39.4 °F /  4.1 °C 30.15 in /  1020.9 hPa North 11.0 mph /  17.7 km/h 19.6 mph /  31.5 km/h 95 % 0.02 in /  0.51 mm
03:05 40.6 °F /  4.8 °C 39.0 °F /  3.9 °C 30.15 in /  1020.9 hPa NNE 9.8 mph /  15.8 km/h 20.0 mph /  32.2 km/h 94 % 0.01 in /  0.25 mm
03:10 40.7 °F /  4.8 °C 39.1 °F /  3.9 °C 30.14 in /  1020.5 hPa NNE 8.2 mph /  13.2 km/h 12.7 mph /  20.4 km/h 94 % 0.01 in /  0.25 mm
03:15 40.7 °F /  4.8 °C 39.4 °F /  4.1 °C 30.14 in /  1020.5 hPa North 9.2 mph /  14.8 km/h 15.0 mph /  24.1 km/h 95 % 0.01 in /  0.25 mm
03:20 40.7 °F /  4.8 °C 39.4 °F /  4.1 °C 30.14 in /  1020.5 hPa NE 12.2 mph /  19.6 km/h 21.9 mph /  35.2 km/h 95 % 0.01 in /  0.25 mm
03:25 40.7 °F /  4.8 °C 39.1 °F /  3.9 °C 30.15 in /  1020.9 hPa NE 9.2 mph /  14.8 km/h 15.0 mph /  24.1 km/h 94 % 0.01 in /  0.25 mm
03:30 40.7 °F /  4.8 °C 39.1 °F /  3.9 °C 30.15 in /  1020.9 hPa NNE 8.3 mph /  13.4 km/h 13.0 mph /  20.9 km/h 94 % 0.01 in /  0.25 mm
03:35 40.7 °F /  4.8 °C 39.1 °F /  3.9 °C 30.15 in /  1020.9 hPa NNW 7.8 mph /  12.6 km/h 16.1 mph /  25.9 km/h 94 % 0.02 in /  0.51 mm
03:40 40.7 °F /  4.8 °C 39.1 °F /  3.9 °C 30.15 in /  1020.9 hPa NE 5.3 mph /  8.5 km/h 16.1 mph /  25.9 km/h 94 % 0.02 in /  0.51 mm
03:45 40.7 °F /  4.8 °C 38.8 °F /  3.8 °C 30.16 in /  1021.2 hPa NNE 7.3 mph /  11.7 km/h 11.5 mph /  18.5 km/h 93 % 0.02 in /  0.51 mm
03:50 40.8 °F /  4.9 °C 38.9 °F /  3.8 °C 30.16 in /  1021.2 hPa NE 6.3 mph /  10.1 km/h 11.5 mph /  18.5 km/h 93 % 0.01 in /  0.25 mm
03:55 40.8 °F /  4.9 °C 38.9 °F /  3.8 °C 30.16 in /  1021.2 hPa NNE 6.7 mph /  10.8 km/h 12.7 mph /  20.4 km/h 93 % 0.01 in /  0.25 mm
04:00 40.9 °F /  4.9 °C 39.0 °F /  3.9 °C 30.17 in /  1021.6 hPa NNE 6.6 mph /  10.6 km/h 10.4 mph /  16.7 km/h 93 % 0.01 in /  0.25 mm
04:05 41.0 °F /  5 °C 39.4 °F /  4.1 °C 30.16 in /  1021.2 hPa NNE 6.3 mph /  10.1 km/h 11.5 mph /  18.5 km/h 94 % 0.01 in /  0.25 mm
04:10 41.1 °F /  5.1 °C 39.2 °F /  4 °C 30.16 in /  1021.2 hPa ENE 7.9 mph /  12.7 km/h 14.0 mph /  22.5 km/h 93 % 0.01 in /  0.25 mm
04:15 41.1 °F /  5.1 °C 39.2 °F /  4 °C 30.16 in /  1021.2 hPa NE 10.8 mph /  17.4 km/h 19.6 mph /  31.5 km/h 93 % 0.01 in /  0.25 mm
04:20 41.3 °F /  5.2 °C 39.4 °F /  4.1 °C 30.16 in /  1021.2 hPa NNE 9.5 mph /  15.3 km/h 18.4 mph /  29.6 km/h 93 % 0.01 in /  0.25 mm
04:25 41.4 °F /  5.2 °C 39.5 °F /  4.2 °C 30.16 in /  1021.2 hPa North 7.9 mph /  12.7 km/h 17.3 mph /  27.8 km/h 93 % 0.02 in /  0.51 mm
04:30 41.5 °F /  5.3 °C 39.3 °F /  4.1 °C 30.17 in /  1021.6 hPa NE 11.3 mph /  18.2 km/h 16.1 mph /  25.9 km/h 92 % 0.02 in /  0.51 mm
04:35 41.6 °F /  5.3 °C 39.4 °F /  4.1 °C 30.17 in /  1021.6 hPa ENE 8.1 mph /  13 km/h 17.3 mph /  27.8 km/h 92 % 0.01 in /  0.25 mm
04:40 41.7 °F /  5.4 °C 39.5 °F /  4.2 °C 30.17 in /  1021.6 hPa North 5.8 mph /  9.3 km/h 11.0 mph /  17.7 km/h 92 % 0.01 in /  0.25 mm
04:45 41.8 °F /  5.4 °C 39.6 °F /  4.2 °C 30.17 in /  1021.6 hPa North 8.5 mph /  13.7 km/h 11.5 mph /  18.5 km/h 92 % 0.01 in /  0.25 mm
04:50 41.8 °F /  5.4 °C 39.6 °F /  4.2 °C 30.18 in /  1021.9 hPa NNE 9.8 mph /  15.8 km/h 15.0 mph /  24.1 km/h 92 % 0.01 in /  0.25 mm
04:56 41.9 °F /  5.5 °C 39.4 °F /  4.1 °C 30.17 in /  1021.6 hPa NNE 7.0 mph /  11.3 km/h 15.0 mph /  24.1 km/h 91 % 0.00 in /  0 mm
05:01 41.9 °F /  5.5 °C 39.5 °F /  4.2 °C 30.17 in /  1021.6 hPa NNE 4.9 mph /  7.9 km/h 8.1 mph /  13 km/h 91 % 0.01 in /  0.25 mm
05:06 41.9 °F /  5.5 °C 39.5 °F /  4.2 °C 30.17 in /  1021.6 hPa NNE 8.8 mph /  14.2 km/h 12.7 mph /  20.4 km/h 91 % 0.01 in /  0.25 mm
05:11 41.9 °F /  5.5 °C 39.5 °F /  4.2 °C 30.17 in /  1021.6 hPa NNE 8.8 mph /  14.2 km/h 12.7 mph /  20.4 km/h 91 % 0.01 in /  0.25 mm
05:16 42.0 °F /  5.6 °C 39.6 °F /  4.2 °C 30.17 in /  1021.6 hPa ENE 4.0 mph /  6.4 km/h 10.4 mph /  16.7 km/h 91 % 0.02 in /  0.51 mm
05:21 42.0 °F /  5.6 °C 39.6 °F /  4.2 °C 30.17 in /  1021.6 hPa ENE 4.6 mph /  7.4 km/h 6.9 mph /  11.1 km/h 91 % 0.02 in /  0.51 mm
05:26 42.1 °F /  5.6 °C 39.7 °F /  4.3 °C 30.17 in /  1021.6 hPa NNE 4.8 mph /  7.7 km/h 12.0 mph /  19.3 km/h 91 % 0.01 in /  0.25 mm
05:31 42.1 °F /  5.6 °C 39.7 °F /  4.3 °C 30.18 in /  1021.9 hPa NE 3.5 mph /  5.6 km/h 11.5 mph /  18.5 km/h 91 % 0.01 in /  0.25 mm
05:36 42.1 °F /  5.6 °C 39.7 °F /  4.3 °C 30.18 in /  1021.9 hPa NE 5.5 mph /  8.9 km/h 11.5 mph /  18.5 km/h 91 % 0.01 in /  0.25 mm
05:41 42.1 °F /  5.6 °C 39.7 °F /  4.3 °C 30.18 in /  1021.9 hPa NE 4.5 mph /  7.2 km/h 10.4 mph /  16.7 km/h 91 % 0.01 in /  0.25 mm
05:46 42.1 °F /  5.6 °C 39.7 °F /  4.3 °C 30.18 in /  1021.9 hPa NNE 8.9 mph /  14.3 km/h 16.1 mph /  25.9 km/h 91 % 0.01 in /  0.25 mm
05:51 42.1 °F /  5.6 °C 39.4 °F /  4.1 °C 30.18 in /  1021.9 hPa North 8.7 mph /  14 km/h 13.8 mph /  22.2 km/h 90 % 0.01 in /  0.25 mm
05:56 42.1 °F /  5.6 °C 39.7 °F /  4.3 °C 30.18 in /  1021.9 hPa NNE 5.7 mph /  9.2 km/h 13.0 mph /  20.9 km/h 91 % 0.01 in /  0.25 mm
06:01 42.1 °F /  5.6 °C 39.7 °F /  4.3 °C 30.18 in /  1021.9 hPa NNE 6.8 mph /  10.9 km/h 11.5 mph /  18.5 km/h 91 % 0.01 in /  0.25 mm
06:11 42.1 °F /  5.6 °C 39.7 °F /  4.3 °C 30.19 in /  1022.2 hPa ENE 7.7 mph /  12.4 km/h 12.7 mph /  20.4 km/h 91 % 0.02 in /  0.51 mm
06:16 42.1 °F /  5.6 °C 39.4 °F /  4.1 °C 30.19 in /  1022.2 hPa NNE 7.9 mph /  12.7 km/h 15.0 mph /  24.1 km/h 90 % 0.01 in /  0.25 mm
06:21 42.1 °F /  5.6 °C 39.4 °F /  4.1 °C 30.20 in /  1022.6 hPa ENE 6.8 mph /  10.9 km/h 11.5 mph /  18.5 km/h 90 % 0.01 in /  0.25 mm
06:31 42.0 °F /  5.6 °C 39.3 °F /  4.1 °C 30.20 in /  1022.6 hPa NNE 9.2 mph /  14.8 km/h 13.8 mph /  22.2 km/h 90 % 0.01 in /  0.25 mm
06:36 42.0 °F /  5.6 °C 39.0 °F /  3.9 °C 30.21 in /  1022.9 hPa NNE 7.3 mph /  11.7 km/h 11.0 mph /  17.7 km/h 89 % 0.01 in /  0.25 mm
06:41 42.0 °F /  5.6 °C 39.3 °F /  4.1 °C 30.21 in /  1022.9 hPa North 3.0 mph /  4.8 km/h 9.2 mph /  14.8 km/h 90 % 0.01 in /  0.25 mm
06:46 42.0 °F /  5.6 °C 39.3 °F /  4.1 °C 30.21 in /  1022.9 hPa ENE 4.7 mph /  7.6 km/h 11.5 mph /  18.5 km/h 90 % 0.01 in /  0.25 mm
06:51 42.0 °F /  5.6 °C 39.3 °F /  4.1 °C 30.21 in /  1022.9 hPa North 4.9 mph /  7.9 km/h 8.1 mph /  13 km/h 90 % 0.01 in /  0.25 mm
06:56 41.9 °F /  5.5 °C 39.2 °F /  4 °C 30.22 in /  1023.2 hPa North 5.9 mph /  9.5 km/h 7.0 mph /  11.3 km/h 90 % 0.02 in /  0.51 mm
07:01 41.9 °F /  5.5 °C 38.9 °F /  3.8 °C 30.22 in /  1023.2 hPa East 6.1 mph /  9.8 km/h 8.1 mph /  13 km/h 89 % 0.02 in /  0.51 mm
07:06 41.9 °F /  5.5 °C 38.9 °F /  3.8 °C 30.22 in /  1023.2 hPa NE 4.5 mph /  7.2 km/h 10.4 mph /  16.7 km/h 89 % 0.01 in /  0.25 mm
07:11 41.9 °F /  5.5 °C 39.2 °F /  4 °C 30.23 in /  1023.6 hPa North 5.8 mph /  9.3 km/h 10.0 mph /  16.1 km/h 90 % 0.01 in /  0.25 mm
07:16 41.9 °F /  5.5 °C 38.9 °F /  3.8 °C 30.23 in /  1023.6 hPa NNE 5.1 mph /  8.2 km/h 6.9 mph /  11.1 km/h 89 % 0.01 in /  0.25 mm
07:21 42.0 °F /  5.6 °C 39.3 °F /  4.1 °C 30.23 in /  1023.6 hPa NNE 2.6 mph /  4.2 km/h 9.2 mph /  14.8 km/h 90 % 0.01 in /  0.25 mm
07:26 42.0 °F /  5.6 °C 39.3 °F /  4.1 °C 30.24 in /  1023.9 hPa NNE 6.7 mph /  10.8 km/h 11.5 mph /  18.5 km/h 90 % 0.01 in /  0.25 mm
07:32 42.1 °F /  5.6 °C 39.4 °F /  4.1 °C 30.24 in /  1023.9 hPa ENE 4.7 mph /  7.6 km/h 13.8 mph /  22.2 km/h 90 % 0.01 in /  0.25 mm
07:37 42.2 °F /  5.7 °C 39.5 °F /  4.2 °C 30.24 in /  1023.9 hPa NE 4.6 mph /  7.4 km/h 7.0 mph /  11.3 km/h 90 % 0.01 in /  0.25 mm
07:42 42.2 °F /  5.7 °C 39.5 °F /  4.2 °C 30.25 in /  1024.3 hPa ENE 5.8 mph /  9.3 km/h 10.4 mph /  16.7 km/h 90 % 0.01 in /  0.25 mm
07:47 42.2 °F /  5.7 °C 39.2 °F /  4 °C 30.25 in /  1024.3 hPa NNE 6.1 mph /  9.8 km/h 11.5 mph /  18.5 km/h 89 % 0.02 in /  0.51 mm
07:52 42.2 °F /  5.7 °C 39.2 °F /  4 °C 30.25 in /  1024.3 hPa NNE 4.6 mph /  7.4 km/h 11.5 mph /  18.5 km/h 89 % 0.02 in /  0.51 mm
07:57 42.2 °F /  5.7 °C 39.2 °F /  4 °C 30.24 in /  1023.9 hPa NNE 5.7 mph /  9.2 km/h 9.2 mph /  14.8 km/h 89 % 0.01 in /  0.25 mm
08:02 42.2 °F /  5.7 °C 39.2 °F /  4 °C 30.24 in /  1023.9 hPa NNE 4.9 mph /  7.9 km/h 7.0 mph /  11.3 km/h 89 % 0.01 in /  0.25 mm
08:07 42.2 °F /  5.7 °C 39.5 °F /  4.2 °C 30.24 in /  1023.9 hPa ENE 8.7 mph /  14 km/h 12.7 mph /  20.4 km/h 90 % 0.01 in /  0.25 mm
08:12 42.2 °F /  5.7 °C 39.2 °F /  4 °C 30.24 in /  1023.9 hPa NE 5.5 mph /  8.9 km/h 10.4 mph /  16.7 km/h 89 % 0.01 in /  0.25 mm
08:17 42.3 °F /  5.7 °C 39.3 °F /  4.1 °C 30.24 in /  1023.9 hPa NNE 4.5 mph /  7.2 km/h 9.0 mph /  14.5 km/h 89 % 0.01 in /  0.25 mm
08:22 42.4 °F /  5.8 °C 39.4 °F /  4.1 °C 30.24 in /  1023.9 hPa ENE 5.0 mph /  8 km/h 9.2 mph /  14.8 km/h 89 % 0.01 in /  0.25 mm
08:27 42.4 °F /  5.8 °C 39.4 °F /  4.1 °C 30.24 in /  1023.9 hPa East 3.4 mph /  5.5 km/h 9.0 mph /  14.5 km/h 89 % 0.01 in /  0.25 mm
08:32 42.4 °F /  5.8 °C 39.4 °F /  4.1 °C 30.24 in /  1023.9 hPa NE 3.6 mph /  5.8 km/h 9.2 mph /  14.8 km/h 89 % 0.01 in /  0.25 mm
08:37 42.5 °F /  5.8 °C 39.5 °F /  4.2 °C 30.24 in /  1023.9 hPa ENE 5.9 mph /  9.5 km/h 9.2 mph /  14.8 km/h 89 % 0.01 in /  0.25 mm
08:42 42.6 °F /  5.9 °C 39.6 °F /  4.2 °C 30.24 in /  1023.9 hPa North 4.8 mph /  7.7 km/h 11.5 mph /  18.5 km/h 89 % 0.02 in /  0.51 mm
08:47 42.7 °F /  5.9 °C 40.0 °F /  4.4 °C 30.24 in /  1023.9 hPa ENE 5.0 mph /  8 km/h 11.0 mph /  17.7 km/h 90 % 0.01 in /  0.25 mm
08:52 42.7 °F /  5.9 °C 39.7 °F /  4.3 °C 30.24 in /  1023.9 hPa NE 3.5 mph /  5.6 km/h 8.1 mph /  13 km/h 89 % 0.01 in /  0.25 mm
08:57 42.7 °F /  5.9 °C 39.7 °F /  4.3 °C 30.24 in /  1023.9 hPa North 5.0 mph /  8 km/h 12.0 mph /  19.3 km/h 89 % 0.01 in /  0.25 mm
09:02 42.8 °F /  6 °C 39.8 °F /  4.3 °C 30.24 in /  1023.9 hPa ENE 5.5 mph /  8.9 km/h 8.1 mph /  13 km/h 89 % 0.01 in /  0.25 mm
09:07 42.8 °F /  6 °C 39.5 °F /  4.2 °C 30.23 in /  1023.6 hPa ENE 8.3 mph /  13.4 km/h 11.5 mph /  18.5 km/h 88 % 0.01 in /  0.25 mm
09:12 42.9 °F /  6.1 °C 39.6 °F /  4.2 °C 30.24 in /  1023.9 hPa NNE 3.9 mph /  6.3 km/h 12.0 mph /  19.3 km/h 88 % 0.01 in /  0.25 mm
09:17 42.9 °F /  6.1 °C 39.6 °F /  4.2 °C 30.24 in /  1023.9 hPa ENE 4.0 mph /  6.4 km/h 10.4 mph /  16.7 km/h 88 % 0.01 in /  0.25 mm
09:22 42.9 °F /  6.1 °C 39.6 °F /  4.2 °C 30.24 in /  1023.9 hPa NE 4.1 mph /  6.6 km/h 8.1 mph /  13 km/h 88 % 0.01 in /  0.25 mm
09:27 43.0 °F /  6.1 °C 39.7 °F /  4.3 °C 30.24 in /  1023.9 hPa NE 5.5 mph /  8.9 km/h 9.2 mph /  14.8 km/h 88 % 0.01 in /  0.25 mm
09:32 43.0 °F /  6.1 °C 39.7 °F /  4.3 °C 30.24 in /  1023.9 hPa NE 7.5 mph /  12.1 km/h 10.4 mph /  16.7 km/h 88 % 0.02 in /  0.51 mm
09:37 43.0 °F /  6.1 °C 39.7 °F /  4.3 °C 30.24 in /  1023.9 hPa ENE 5.2 mph /  8.4 km/h 10.4 mph /  16.7 km/h 88 % 0.02 in /  0.51 mm
09:42 43.1 °F /  6.2 °C 39.8 °F /  4.3 °C 30.24 in /  1023.9 hPa ENE 5.8 mph /  9.3 km/h 8.1 mph /  13 km/h 88 % 0.01 in /  0.25 mm
09:52 43.1 °F /  6.2 °C 39.5 °F /  4.2 °C 30.25 in /  1024.3 hPa NE 4.3 mph /  6.9 km/h 6.9 mph /  11.1 km/h 87 % 0.01 in /  0.25 mm
09:57 43.1 °F /  6.2 °C 39.5 °F /  4.2 °C 30.24 in /  1023.9 hPa NNE 2.9 mph /  4.7 km/h 10.4 mph /  16.7 km/h 87 % 0.01 in /  0.25 mm
10:02 43.2 °F /  6.2 °C 39.6 °F /  4.2 °C 30.25 in /  1024.3 hPa East 6.4 mph /  10.3 km/h 8.1 mph /  13 km/h 87 % 0.01 in /  0.25 mm
10:07 43.2 °F /  6.2 °C 39.6 °F /  4.2 °C 30.25 in /  1024.3 hPa NNE 7.0 mph /  11.3 km/h 9.2 mph /  14.8 km/h 87 % 0.01 in /  0.25 mm
10:12 43.3 °F /  6.3 °C 39.7 °F /  4.3 °C 30.25 in /  1024.3 hPa ENE 4.0 mph /  6.4 km/h 10.4 mph /  16.7 km/h 87 % 0.01 in /  0.25 mm
10:17 43.4 °F /  6.3 °C 39.8 °F /  4.3 °C 30.25 in /  1024.3 hPa NE 7.4 mph /  11.9 km/h 11.5 mph /  18.5 km/h 87 % 0.01 in /  0.25 mm
10:22 43.4 °F /  6.3 °C 39.5 °F /  4.2 °C 30.25 in /  1024.3 hPa East 3.4 mph /  5.5 km/h 11.5 mph /  18.5 km/h 86 % 0.01 in /  0.25 mm
10:27 43.4 °F /  6.3 °C 39.5 °F /  4.2 °C 30.24 in /  1023.9 hPa NE 4.3 mph /  6.9 km/h 6.9 mph /  11.1 km/h 86 % 0.02 in /  0.51 mm
10:32 43.5 °F /  6.4 °C 39.9 °F /  4.4 °C 30.24 in /  1023.9 hPa ENE 6.4 mph /  10.3 km/h 10.0 mph /  16.1 km/h 87 % 0.01 in /  0.25 mm
10:37 43.5 °F /  6.4 °C 39.3 °F /  4.1 °C 30.24 in /  1023.9 hPa ENE 7.2 mph /  11.6 km/h 9.0 mph /  14.5 km/h 85 % 0.01 in /  0.25 mm
10:38 43.5 °F /  6.4 °C 39.3 °F /  4.1 °C 30.24 in /  1023.9 hPa East 8.1 mph /  13 km/h 12.7 mph /  20.4 km/h 85 % 0.01 in /  0.25 mm
10:43 43.6 °F /  6.4 °C 39.7 °F /  4.3 °C 30.24 in /  1023.9 hPa NE 3.4 mph /  5.5 km/h 6.9 mph /  11.1 km/h 86 % 0.01 in /  0.25 mm
10:48 43.8 °F /  6.6 °C 39.9 °F /  4.4 °C 30.24 in /  1023.9 hPa NE 4.2 mph /  6.8 km/h 11.5 mph /  18.5 km/h 86 % 0.01 in /  0.25 mm
10:53 43.9 °F /  6.6 °C 39.7 °F /  4.3 °C 30.24 in /  1023.9 hPa North 5.5 mph /  8.9 km/h 9.2 mph /  14.8 km/h 85 % 0.01 in /  0.25 mm
10:58 44.0 °F /  6.7 °C 39.8 °F /  4.3 °C 30.24 in /  1023.9 hPa ENE 4.3 mph /  6.9 km/h 8.0 mph /  12.9 km/h 85 % 0.01 in /  0.25 mm
11:03 44.1 °F /  6.7 °C 39.6 °F /  4.2 °C 30.23 in /  1023.6 hPa ENE 7.5 mph /  12.1 km/h 9.0 mph /  14.5 km/h 84 % 0.01 in /  0.25 mm
11:08 44.2 °F /  6.8 °C 39.7 °F /  4.3 °C 30.23 in /  1023.6 hPa ENE 7.4 mph /  11.9 km/h 11.5 mph /  18.5 km/h 84 % 0.01 in /  0.25 mm
11:13 44.3 °F /  6.8 °C 39.8 °F /  4.3 °C 30.23 in /  1023.6 hPa ENE 2.7 mph /  4.3 km/h 7.0 mph /  11.3 km/h 84 % 0.01 in /  0.25 mm
11:18 44.5 °F /  6.9 °C 40.3 °F /  4.6 °C 30.23 in /  1023.6 hPa North 2.6 mph /  4.2 km/h 3.5 mph /  5.6 km/h 85 % 0.01 in /  0.25 mm
11:23 44.7 °F /  7.1 °C 40.2 °F /  4.6 °C 30.23 in /  1023.6 hPa NE 5.7 mph /  9.2 km/h 9.2 mph /  14.8 km/h 84 % 0.01 in /  0.25 mm
11:28 44.9 °F /  7.2 °C 40.0 °F /  4.4 °C 30.23 in /  1023.6 hPa NE 4.9 mph /  7.9 km/h 8.1 mph /  13 km/h 83 % 0.01 in /  0.25 mm
11:34 45.1 °F /  7.3 °C 40.2 °F /  4.6 °C 30.23 in /  1023.6 hPa ENE 5.2 mph /  8.4 km/h 10.0 mph /  16.1 km/h 83 % 0.01 in /  0.25 mm
11:39 45.2 °F /  7.3 °C 40.0 °F /  4.4 °C 30.22 in /  1023.2 hPa North 5.6 mph /  9 km/h 8.0 mph /  12.9 km/h 82 % 0.01 in /  0.25 mm
11:44 45.4 °F /  7.4 °C 40.5 °F /  4.7 °C 30.23 in /  1023.6 hPa ENE 6.7 mph /  10.8 km/h 11.5 mph /  18.5 km/h 83 % 0.01 in /  0.25 mm
11:49 45.6 °F /  7.6 °C 40.4 °F /  4.7 °C 30.23 in /  1023.6 hPa NNE 4.1 mph /  6.6 km/h 9.2 mph /  14.8 km/h 82 % 0.01 in /  0.25 mm
11:54 45.8 °F /  7.7 °C 40.0 °F /  4.4 °C 30.22 in /  1023.2 hPa ENE 5.5 mph /  8.9 km/h 9.2 mph /  14.8 km/h 80 % 0.01 in /  0.25 mm
12:14 46.5 °F /  8.1 °C 40.7 °F /  4.8 °C 30.22 in /  1023.2 hPa East 6.5 mph /  10.5 km/h 12.7 mph /  20.4 km/h 80 % 0.01 in /  0.25 mm
12:19 46.5 °F /  8.1 °C 40.3 °F /  4.6 °C 30.23 in /  1023.6 hPa East 6.9 mph /  11.1 km/h 9.2 mph /  14.8 km/h 79 % 0.02 in /  0.51 mm
12:24 46.3 °F /  7.9 °C 39.5 °F /  4.2 °C 30.22 in /  1023.2 hPa NE 6.3 mph /  10.1 km/h 9.2 mph /  14.8 km/h 77 % 0.02 in /  0.51 mm
12:29 46.3 °F /  7.9 °C 39.8 °F /  4.3 °C 30.22 in /  1023.2 hPa East 3.3 mph /  5.3 km/h 8.1 mph /  13 km/h 78 % 0.01 in /  0.25 mm
12:34 46.5 °F /  8.1 °C 40.3 °F /  4.6 °C 30.22 in /  1023.2 hPa ENE 5.3 mph /  8.5 km/h 8.1 mph /  13 km/h 79 % 0.01 in /  0.25 mm
12:39 46.7 °F /  8.2 °C 40.5 °F /  4.7 °C 30.22 in /  1023.2 hPa NE 3.2 mph /  5.1 km/h 6.9 mph /  11.1 km/h 79 % 0.01 in /  0.25 mm
12:44 46.8 °F /  8.2 °C 40.3 °F /  4.6 °C 30.21 in /  1022.9 hPa ENE 1.9 mph /  3.1 km/h 4.0 mph /  6.4 km/h 78 % 0.01 in /  0.25 mm
12:45 46.8 °F /  8.2 °C 40.6 °F /  4.8 °C 30.21 in /  1022.9 hPa NE 5.7 mph /  9.2 km/h 6.9 mph /  11.1 km/h 79 % 0.01 in /  0.25 mm
12:51 47.0 °F /  8.3 °C 40.5 °F /  4.7 °C 30.21 in /  1022.9 hPa ENE 5.0 mph /  8 km/h 7.0 mph /  11.3 km/h 78 % 0.00 in /  0 mm
12:56 47.2 °F /  8.4 °C 40.7 °F /  4.8 °C 30.21 in /  1022.9 hPa NE 5.0 mph /  8 km/h 8.0 mph /  12.9 km/h 78 % 0.00 in /  0 mm
13:01 47.5 °F /  8.6 °C 41.0 °F /  5 °C 30.21 in /  1022.9 hPa NNE 2.2 mph /  3.5 km/h 5.0 mph /  8 km/h 78 % 0.01 in /  0.25 mm
13:06 47.7 °F /  8.7 °C 40.8 °F /  4.9 °C 30.21 in /  1022.9 hPa ENE 6.6 mph /  10.6 km/h 10.4 mph /  16.7 km/h 77 % 0.01 in /  0.25 mm
13:11 47.8 °F /  8.8 °C 40.6 °F /  4.8 °C 30.21 in /  1022.9 hPa ENE 7.0 mph /  11.3 km/h 11.5 mph /  18.5 km/h 76 % 0.02 in /  0.51 mm
13:16 47.9 °F /  8.8 °C 41.0 °F /  5 °C 30.21 in /  1022.9 hPa NE 2.6 mph /  4.2 km/h 4.6 mph /  7.4 km/h 77 % 0.01 in /  0.25 mm
13:21 47.9 °F /  8.8 °C 40.0 °F /  4.4 °C 30.21 in /  1022.9 hPa NE 4.5 mph /  7.2 km/h 9.2 mph /  14.8 km/h 74 % 0.01 in /  0.25 mm
13:26 48.0 °F /  8.9 °C 40.8 °F /  4.9 °C 30.20 in /  1022.6 hPa ENE 2.9 mph /  4.7 km/h 4.6 mph /  7.4 km/h 76 % 0.01 in /  0.25 mm
13:31 48.1 °F /  8.9 °C 40.5 °F /  4.7 °C 30.20 in /  1022.6 hPa East 4.7 mph /  7.6 km/h 9.2 mph /  14.8 km/h 75 % 0.01 in /  0.25 mm
13:36 48.0 °F /  8.9 °C 40.8 °F /  4.9 °C 30.21 in /  1022.9 hPa NNE 4.1 mph /  6.6 km/h 5.8 mph /  9.3 km/h 76 % 0.01 in /  0.25 mm
13:41 48.0 °F /  8.9 °C 40.5 °F /  4.7 °C 30.21 in /  1022.9 hPa ENE 4.0 mph /  6.4 km/h 8.1 mph /  13 km/h 75 % 0.01 in /  0.25 mm
13:46 47.9 °F /  8.8 °C 40.7 °F /  4.8 °C 30.20 in /  1022.6 hPa ENE 5.8 mph /  9.3 km/h 9.2 mph /  14.8 km/h 76 % 0.01 in /  0.25 mm
13:51 48.0 °F /  8.9 °C 40.8 °F /  4.9 °C 30.20 in /  1022.6 hPa East 5.5 mph /  8.9 km/h 8.0 mph /  12.9 km/h 76 % 0.01 in /  0.25 mm
13:56 47.9 °F /  8.8 °C 40.4 °F /  4.7 °C 30.21 in /  1022.9 hPa ENE 3.3 mph /  5.3 km/h 8.1 mph /  13 km/h 75 % 0.02 in /  0.51 mm
14:01 47.9 °F /  8.8 °C 40.7 °F /  4.8 °C 30.21 in /  1022.9 hPa NE 0.3 mph /  0.5 km/h 3.5 mph /  5.6 km/h 76 % 0.02 in /  0.51 mm
14:06 48.0 °F /  8.9 °C 41.1 °F /  5.1 °C 30.21 in /  1022.9 hPa ENE 4.9 mph /  7.9 km/h 9.0 mph /  14.5 km/h 77 % 0.02 in /  0.51 mm
14:11 48.0 °F /  8.9 °C 40.5 °F /  4.7 °C 30.21 in /  1022.9 hPa ENE 3.0 mph /  4.8 km/h 3.5 mph /  5.6 km/h 75 % 0.01 in /  0.25 mm
14:16 48.0 °F /  8.9 °C 41.1 °F /  5.1 °C 30.21 in /  1022.9 hPa ENE 2.8 mph /  4.5 km/h 4.6 mph /  7.4 km/h 77 % 0.01 in /  0.25 mm
14:21 48.0 °F /  8.9 °C 41.1 °F /  5.1 °C 30.21 in /  1022.9 hPa East 4.2 mph /  6.8 km/h 5.0 mph /  8 km/h 77 % 0.01 in /  0.25 mm
14:26 48.0 °F /  8.9 °C 41.1 °F /  5.1 °C 30.21 in /  1022.9 hPa NNE 1.5 mph /  2.4 km/h 3.5 mph /  5.6 km/h 77 % 0.01 in /  0.25 mm
14:31 48.1 °F /  8.9 °C 40.9 °F /  4.9 °C 30.21 in /  1022.9 hPa NNE 1.9 mph /  3.1 km/h 5.8 mph /  9.3 km/h 76 % 0.01 in /  0.25 mm
14:36 48.1 °F /  8.9 °C 41.2 °F /  5.1 °C 30.21 in /  1022.9 hPa ENE 2.3 mph /  3.7 km/h 3.0 mph /  4.8 km/h 77 % 0.01 in /  0.25 mm
14:41 48.1 °F /  8.9 °C 41.2 °F /  5.1 °C 30.21 in /  1022.9 hPa ENE 1.1 mph /  1.8 km/h 4.6 mph /  7.4 km/h 77 % 0.01 in /  0.25 mm
14:46 48.2 °F /  9 °C 41.3 °F /  5.2 °C 30.21 in /  1022.9 hPa ENE 2.3 mph /  3.7 km/h 5.0 mph /  8 km/h 77 % 0.01 in /  0.25 mm
14:51 48.2 °F /  9 °C 41.3 °F /  5.2 °C 30.21 in /  1022.9 hPa ENE 2.7 mph /  4.3 km/h 3.5 mph /  5.6 km/h 77 % 0.02 in /  0.51 mm
14:56 48.2 °F /  9 °C 41.3 °F /  5.2 °C 30.21 in /  1022.9 hPa ENE 1.3 mph /  2.1 km/h 3.5 mph /  5.6 km/h 77 % 0.01 in /  0.25 mm
15:01 48.2 °F /  9 °C 41.3 °F /  5.2 °C 30.21 in /  1022.9 hPa ENE 1.6 mph /  2.6 km/h 3.5 mph /  5.6 km/h 77 % 0.01 in /  0.25 mm
15:06 48.2 °F /  9 °C 41.3 °F /  5.2 °C 30.22 in /  1023.2 hPa NNE 2.5 mph /  4 km/h 5.0 mph /  8 km/h 77 % 0.01 in /  0.25 mm
15:11 48.2 °F /  9 °C 41.7 °F /  5.4 °C 30.21 in /  1022.9 hPa ENE 1.6 mph /  2.6 km/h 3.5 mph /  5.6 km/h 78 % 0.01 in /  0.25 mm
15:16 48.2 °F /  9 °C 41.3 °F /  5.2 °C 30.22 in /  1023.2 hPa NE 3.5 mph /  5.6 km/h 6.9 mph /  11.1 km/h 77 % 0.01 in /  0.25 mm
15:21 48.2 °F /  9 °C 41.3 °F /  5.2 °C 30.22 in /  1023.2 hPa ENE 2.9 mph /  4.7 km/h 4.0 mph /  6.4 km/h 77 % 0.01 in /  0.25 mm
15:27 48.2 °F /  9 °C 41.3 °F /  5.2 °C 30.22 in /  1023.2 hPa North 2.8 mph /  4.5 km/h 3.5 mph /  5.6 km/h 77 % 0.01 in /  0.25 mm
15:32 48.1 °F /  8.9 °C 41.2 °F /  5.1 °C 30.22 in /  1023.2 hPa NE 1.7 mph /  2.7 km/h 3.5 mph /  5.6 km/h 77 % 0.01 in /  0.25 mm
15:37 48.1 °F /  8.9 °C 41.2 °F /  5.1 °C 30.22 in /  1023.2 hPa ENE 2.3 mph /  3.7 km/h 5.0 mph /  8 km/h 77 % 0.02 in /  0.51 mm
15:42 48.0 °F /  8.9 °C 41.1 °F /  5.1 °C 30.22 in /  1023.2 hPa ENE 2.6 mph /  4.2 km/h 4.6 mph /  7.4 km/h 77 % 0.02 in /  0.51 mm
15:47 47.9 °F /  8.8 °C 41.4 °F /  5.2 °C 30.22 in /  1023.2 hPa NE 1.2 mph /  1.9 km/h 3.5 mph /  5.6 km/h 78 % 0.01 in /  0.25 mm
15:52 47.9 °F /  8.8 °C 41.4 °F /  5.2 °C 30.22 in /  1023.2 hPa ENE 3.1 mph /  5 km/h 4.6 mph /  7.4 km/h 78 % 0.01 in /  0.25 mm
15:57 47.8 °F /  8.8 °C 40.9 °F /  4.9 °C 30.22 in /  1023.2 hPa ENE 0.9 mph /  1.4 km/h 3.5 mph /  5.6 km/h 77 % 0.01 in /  0.25 mm
16:02 47.8 °F /  8.8 °C 40.9 °F /  4.9 °C 30.22 in /  1023.2 hPa ENE 0.2 mph /  0.3 km/h 4.6 mph /  7.4 km/h 77 % 0.01 in /  0.25 mm
16:07 47.7 °F /  8.7 °C 41.2 °F /  5.1 °C 30.22 in /  1023.2 hPa ENE 1.8 mph /  2.9 km/h 3.5 mph /  5.6 km/h 78 % 0.01 in /  0.25 mm
16:12 47.7 °F /  8.7 °C 41.2 °F /  5.1 °C 30.22 in /  1023.2 hPa NNE 0.6 mph /  1 km/h 4.6 mph /  7.4 km/h 78 % 0.01 in /  0.25 mm
16:17 47.6 °F /  8.7 °C 41.1 °F /  5.1 °C 30.22 in /  1023.2 hPa ENE 0.8 mph /  1.3 km/h 3.5 mph /  5.6 km/h 78 % 0.01 in /  0.25 mm
16:22 47.6 °F /  8.7 °C 40.7 °F /  4.8 °C 30.22 in /  1023.2 hPa NE 2.2 mph /  3.5 km/h 3.5 mph /  5.6 km/h 77 % 0.01 in /  0.25 mm
16:27 47.5 °F /  8.6 °C 40.6 °F /  4.8 °C 30.22 in /  1023.2 hPa NNE 1.9 mph /  3.1 km/h 3.5 mph /  5.6 km/h 77 % 0.01 in /  0.25 mm
16:32 47.4 °F /  8.6 °C 40.9 °F /  4.9 °C 30.22 in /  1023.2 hPa NNE 0.4 mph /  0.6 km/h 2.3 mph /  3.7 km/h 78 % 0.02 in /  0.51 mm
16:37 47.4 °F /  8.6 °C 40.6 °F /  4.8 °C 30.22 in /  1023.2 hPa NNE 1.4 mph /  2.3 km/h 3.5 mph /  5.6 km/h 77 % 0.01 in /  0.25 mm
16:42 47.3 °F /  8.5 °C 40.8 °F /  4.9 °C 30.22 in /  1023.2 hPa NNE 1.2 mph /  1.9 km/h 2.3 mph /  3.7 km/h 78 % 0.01 in /  0.25 mm
16:47 47.2 °F /  8.4 °C 40.4 °F /  4.7 °C 30.22 in /  1023.2 hPa Calm     77 % 0.01 in /  0.25 mm
16:52 47.2 °F /  8.4 °C 40.7 °F /  4.8 °C 30.23 in /  1023.6 hPa ENE 1.3 mph /  2.1 km/h 2.0 mph /  3.2 km/h 78 % 0.01 in /  0.25 mm
16:58 47.2 °F /  8.4 °C 40.7 °F /  4.8 °C 30.23 in /  1023.6 hPa Calm   3.5 mph /  5.6 km/h 78 % 0.01 in /  0.25 mm
17:03 47.2 °F /  8.4 °C 40.7 °F /  4.8 °C 30.23 in /  1023.6 hPa NE 0.2 mph /  0.3 km/h 3.5 mph /  5.6 km/h 78 % 0.01 in /  0.25 mm
17:08 47.2 °F /  8.4 °C 41.0 °F /  5 °C 30.24 in /  1023.9 hPa Calm     79 % 0.01 in /  0.25 mm
17:13 47.1 °F /  8.4 °C 41.2 °F /  5.1 °C 30.24 in /  1023.9 hPa Calm     80 % 0.01 in /  0.25 mm
17:18 47.2 °F /  8.4 °C 41.3 °F /  5.2 °C 30.24 in /  1023.9 hPa Calm   1.2 mph /  1.9 km/h 80 % 0.01 in /  0.25 mm
17:23 47.1 °F /  8.4 °C 41.2 °F /  5.1 °C 30.23 in /  1023.6 hPa NNE 0.4 mph /  0.6 km/h 2.3 mph /  3.7 km/h 80 % 0.01 in /  0.25 mm
17:28 47.1 °F /  8.4 °C 41.2 °F /  5.1 °C 30.24 in /  1023.9 hPa Calm     80 % 0.02 in /  0.51 mm
17:33 47.0 °F /  8.3 °C 41.1 °F /  5.1 °C 30.24 in /  1023.9 hPa North 2.2 mph /  3.5 km/h 3.5 mph /  5.6 km/h 80 % 0.01 in /  0.25 mm
17:38 47.0 °F /  8.3 °C 41.1 °F /  5.1 °C 30.24 in /  1023.9 hPa Calm     80 % 0.01 in /  0.25 mm
17:43 47.0 °F /  8.3 °C 41.1 °F /  5.1 °C 30.24 in /  1023.9 hPa North 1.2 mph /  1.9 km/h 4.6 mph /  7.4 km/h 80 % 0.01 in /  0.25 mm
17:48 46.9 °F /  8.3 °C 40.7 °F /  4.8 °C 30.24 in /  1023.9 hPa NNW 5.5 mph /  8.9 km/h 6.9 mph /  11.1 km/h 79 % 0.01 in /  0.25 mm
17:53 46.9 °F /  8.3 °C 40.7 °F /  4.8 °C 30.24 in /  1023.9 hPa NNE 3.4 mph /  5.5 km/h 6.9 mph /  11.1 km/h 79 % 0.01 in /  0.25 mm
17:58 46.9 °F /  8.3 °C 40.7 °F /  4.8 °C 30.24 in /  1023.9 hPa North 2.7 mph /  4.3 km/h 3.5 mph /  5.6 km/h 79 % 0.01 in /  0.25 mm
18:03 46.9 °F /  8.3 °C 40.7 °F /  4.8 °C 30.24 in /  1023.9 hPa NNE 0.4 mph /  0.6 km/h 3.5 mph /  5.6 km/h 79 % 0.01 in /  0.25 mm
18:08 47.0 °F /  8.3 °C 41.1 °F /  5.1 °C 30.24 in /  1023.9 hPa North 0.7 mph /  1.1 km/h 3.5 mph /  5.6 km/h 80 % 0.01 in /  0.25 mm
18:13 46.9 °F /  8.3 °C 41.1 °F /  5.1 °C 30.24 in /  1023.9 hPa North 0.5 mph /  0.8 km/h 3.5 mph /  5.6 km/h 80 % 0.01 in /  0.25 mm
18:19 47.0 °F /  8.3 °C 40.8 °F /  4.9 °C 30.25 in /  1024.3 hPa North 0.7 mph /  1.1 km/h 3.0 mph /  4.8 km/h 79 % 0.01 in /  0.25 mm
18:24 47.0 °F /  8.3 °C 40.8 °F /  4.9 °C 30.25 in /  1024.3 hPa NNE 0.8 mph /  1.3 km/h 4.0 mph /  6.4 km/h 79 % 0.01 in /  0.25 mm
18:29 47.0 °F /  8.3 °C 40.5 °F /  4.7 °C 30.25 in /  1024.3 hPa North 2.2 mph /  3.5 km/h 3.5 mph /  5.6 km/h 78 % 0.00 in /  0 mm
18:34 47.0 °F /  8.3 °C 40.5 °F /  4.7 °C 30.25 in /  1024.3 hPa North 3.1 mph /  5 km/h 4.6 mph /  7.4 km/h 78 % 0.01 in /  0.25 mm
18:39 47.0 °F /  8.3 °C 40.5 °F /  4.7 °C 30.25 in /  1024.3 hPa NNE 1.5 mph /  2.4 km/h 5.8 mph /  9.3 km/h 78 % 0.01 in /  0.25 mm
18:44 47.0 °F /  8.3 °C 40.5 °F /  4.7 °C 30.25 in /  1024.3 hPa NNE 2.3 mph /  3.7 km/h 4.6 mph /  7.4 km/h 78 % 0.01 in /  0.25 mm
18:49 47.1 °F /  8.4 °C 40.6 °F /  4.8 °C 30.25 in /  1024.3 hPa North 4.5 mph /  7.2 km/h 6.9 mph /  11.1 km/h 78 % 0.01 in /  0.25 mm
18:54 47.2 °F /  8.4 °C 40.7 °F /  4.8 °C 30.25 in /  1024.3 hPa NNE 4.0 mph /  6.4 km/h 5.8 mph /  9.3 km/h 78 % 0.01 in /  0.25 mm
18:59 47.2 °F /  8.4 °C 40.7 °F /  4.8 °C 30.24 in /  1023.9 hPa North 4.2 mph /  6.8 km/h 6.9 mph /  11.1 km/h 78 % 0.01 in /  0.25 mm
19:04 47.2 °F /  8.4 °C 41.0 °F /  5 °C 30.25 in /  1024.3 hPa NE 6.7 mph /  10.8 km/h 9.2 mph /  14.8 km/h 79 % 0.01 in /  0.25 mm
19:09 47.3 °F /  8.5 °C 41.1 °F /  5.1 °C 30.25 in /  1024.3 hPa NNW 3.8 mph /  6.1 km/h 5.0 mph /  8 km/h 79 % 0.01 in /  0.25 mm
19:14 47.3 °F /  8.5 °C 41.1 °F /  5.1 °C 30.25 in /  1024.3 hPa North 3.0 mph /  4.8 km/h 6.0 mph /  9.7 km/h 79 % 0.01 in /  0.25 mm
19:19 47.3 °F /  8.5 °C 41.1 °F /  5.1 °C 30.25 in /  1024.3 hPa NNE 0.9 mph /  1.4 km/h 3.5 mph /  5.6 km/h 79 % 0.01 in /  0.25 mm
19:24 47.3 °F /  8.5 °C 40.8 °F /  4.9 °C 30.25 in /  1024.3 hPa NNE 3.9 mph /  6.3 km/h 10.4 mph /  16.7 km/h 78 % 0.01 in /  0.25 mm
19:29 47.4 °F /  8.6 °C 40.6 °F /  4.8 °C 30.25 in /  1024.3 hPa NNE 2.2 mph /  3.5 km/h 5.0 mph /  8 km/h 77 % 0.01 in /  0.25 mm
19:34 47.4 °F /  8.6 °C 40.6 °F /  4.8 °C 30.25 in /  1024.3 hPa NNE 3.7 mph /  6 km/h 8.1 mph /  13 km/h 77 % 0.01 in /  0.25 mm
19:39 47.4 °F /  8.6 °C 40.9 °F /  4.9 °C 30.25 in /  1024.3 hPa NNE 4.1 mph /  6.6 km/h 8.0 mph /  12.9 km/h 78 % 0.01 in /  0.25 mm
19:44 47.4 °F /  8.6 °C 41.2 °F /  5.1 °C 30.25 in /  1024.3 hPa NNE 3.7 mph /  6 km/h 5.8 mph /  9.3 km/h 79 % 0.01 in /  0.25 mm
19:49 47.4 °F /  8.6 °C 41.2 °F /  5.1 °C 30.25 in /  1024.3 hPa NNE 4.5 mph /  7.2 km/h 5.0 mph /  8 km/h 79 % 0.01 in /  0.25 mm
19:54 47.4 °F /  8.6 °C 41.2 °F /  5.1 °C 30.25 in /  1024.3 hPa NE 1.9 mph /  3.1 km/h 6.9 mph /  11.1 km/h 79 % 0.01 in /  0.25 mm
19:59 47.4 °F /  8.6 °C 40.9 °F /  4.9 °C 30.26 in /  1024.6 hPa ENE 3.1 mph /  5 km/h 7.0 mph /  11.3 km/h 78 % 0.01 in /  0.25 mm
20:04 47.3 °F /  8.5 °C 40.5 °F /  4.7 °C 30.26 in /  1024.6 hPa NNE 3.0 mph /  4.8 km/h 8.1 mph /  13 km/h 77 % 0.01 in /  0.25 mm
20:09 47.3 °F /  8.5 °C 40.8 °F /  4.9 °C 30.26 in /  1024.6 hPa NE 1.2 mph /  1.9 km/h 8.1 mph /  13 km/h 78 % 0.01 in /  0.25 mm
20:14 47.3 °F /  8.5 °C 40.8 °F /  4.9 °C 30.26 in /  1024.6 hPa North 3.2 mph /  5.1 km/h 5.0 mph /  8 km/h 78 % 0.01 in /  0.25 mm
20:19 47.2 °F /  8.4 °C 40.7 °F /  4.8 °C 30.26 in /  1024.6 hPa NNE 2.1 mph /  3.4 km/h 6.0 mph /  9.7 km/h 78 % 0.01 in /  0.25 mm
20:24 47.1 °F /  8.4 °C 40.3 °F /  4.6 °C 30.26 in /  1024.6 hPa North 1.5 mph /  2.4 km/h 4.6 mph /  7.4 km/h 77 % 0.01 in /  0.25 mm
20:29 47.0 °F /  8.3 °C 40.2 °F /  4.6 °C 30.25 in /  1024.3 hPa NNE 2.2 mph /  3.5 km/h 3.5 mph /  5.6 km/h 77 % 0.01 in /  0.25 mm
20:34 46.9 °F /  8.3 °C 39.7 °F /  4.3 °C 30.26 in /  1024.6 hPa NNE 3.3 mph /  5.3 km/h 3.5 mph /  5.6 km/h 76 % 0.00 in /  0 mm
20:40 46.8 °F /  8.2 °C 40.0 °F /  4.4 °C 30.26 in /  1024.6 hPa ENE 0.4 mph /  0.6 km/h 2.0 mph /  3.2 km/h 77 % 0.00 in /  0 mm
20:43 46.7 °F /  8.2 °C 39.9 °F /  4.4 °C 30.26 in /  1024.6 hPa Calm     77 % 0.00 in /  0 mm
20:46 46.6 °F /  8.1 °C 39.8 °F /  4.3 °C 30.26 in /  1024.6 hPa North 0.7 mph /  1.1 km/h 2.3 mph /  3.7 km/h 77 % 0.01 in /  0.25 mm
20:49 46.5 °F /  8.1 °C 39.7 °F /  4.3 °C 30.26 in /  1024.6 hPa North 2.7 mph /  4.3 km/h 8.1 mph /  13 km/h 77 % 0.01 in /  0.25 mm
20:54 46.3 °F /  7.9 °C 39.5 °F /  4.2 °C 30.25 in /  1024.3 hPa Calm   3.5 mph /  5.6 km/h 77 % 0.01 in /  0.25 mm
20:59 46.2 °F /  7.9 °C 39.4 °F /  4.1 °C 30.25 in /  1024.3 hPa Calm     77 % 0.01 in /  0.25 mm
21:04 46.1 °F /  7.8 °C 39.3 °F /  4.1 °C 30.25 in /  1024.3 hPa NNE 2.6 mph /  4.2 km/h 3.5 mph /  5.6 km/h 77 % 0.01 in /  0.25 mm
21:09 45.9 °F /  7.7 °C 39.1 °F /  3.9 °C 30.24 in /  1023.9 hPa Calm     77 % 0.01 in /  0.25 mm
21:14 45.7 °F /  7.6 °C 39.2 °F /  4 °C 30.25 in /  1024.3 hPa ENE 1.7 mph /  2.7 km/h 3.5 mph /  5.6 km/h 78 % 0.01 in /  0.25 mm
21:19 45.6 °F /  7.6 °C 39.1 °F /  3.9 °C 30.25 in /  1024.3 hPa ENE 1.9 mph /  3.1 km/h 5.0 mph /  8 km/h 78 % 0.01 in /  0.25 mm
21:24 45.4 °F /  7.4 °C 39.3 °F /  4.1 °C 30.24 in /  1023.9 hPa ENE 2.7 mph /  4.3 km/h 4.6 mph /  7.4 km/h 79 % 0.01 in /  0.25 mm
21:29 45.4 °F /  7.4 °C 39.3 °F /  4.1 °C 30.24 in /  1023.9 hPa ENE 0.8 mph /  1.3 km/h 2.3 mph /  3.7 km/h 79 % 0.01 in /  0.25 mm
21:32 45.3 °F /  7.4 °C 39.2 °F /  4 °C 30.24 in /  1023.9 hPa Calm   1.2 mph /  1.9 km/h 79 % 0.01 in /  0.25 mm
21:37 45.2 °F /  7.3 °C 39.1 °F /  3.9 °C 30.24 in /  1023.9 hPa Calm   1.2 mph /  1.9 km/h 79 % 0.01 in /  0.25 mm
21:42 45.1 °F /  7.3 °C 39.3 °F /  4.1 °C 30.24 in /  1023.9 hPa Calm   1.2 mph /  1.9 km/h 80 % 0.01 in /  0.25 mm
21:47 44.9 °F /  7.2 °C 39.4 °F /  4.1 °C 30.24 in /  1023.9 hPa Calm   1.2 mph /  1.9 km/h 81 % 0.00 in /  0 mm
21:52 44.7 °F /  7.1 °C 39.2 °F /  4 °C 30.24 in /  1023.9 hPa Calm   1.2 mph /  1.9 km/h 81 % 0.00 in /  0 mm
21:57 44.5 °F /  6.9 °C 39.0 °F /  3.9 °C 30.24 in /  1023.9 hPa NNE 0.2 mph /  0.3 km/h   81 % 0.00 in /  0 mm
22:02 44.2 °F /  6.8 °C 39.1 °F /  3.9 °C 30.24 in /  1023.9 hPa Calm     82 % 0.01 in /  0.25 mm
22:07 44.0 °F /  6.7 °C 38.9 °F /  3.8 °C 30.24 in /  1023.9 hPa NE 0.2 mph /  0.3 km/h 2.3 mph /  3.7 km/h 82 % 0.01 in /  0.25 mm
22:12 43.7 °F /  6.5 °C 38.6 °F /  3.7 °C 30.24 in /  1023.9 hPa NE 0.8 mph /  1.3 km/h 2.0 mph /  3.2 km/h 82 % 0.01 in /  0.25 mm
22:17 43.4 °F /  6.3 °C 38.6 °F /  3.7 °C 30.24 in /  1023.9 hPa Calm     83 % 0.01 in /  0.25 mm
22:22 43.2 °F /  6.2 °C 38.4 °F /  3.6 °C 30.23 in /  1023.6 hPa Calm     83 % 0.01 in /  0.25 mm
22:23 43.1 °F /  6.2 °C 38.3 °F /  3.5 °C 30.23 in /  1023.6 hPa Calm     83 % 0.01 in /  0.25 mm
22:28 42.9 °F /  6.1 °C 38.4 °F /  3.6 °C 30.00 in /  1015.8 hPa Calm     84 % 0.01 in /  0.25 mm
22:29 42.9 °F /  6.1 °C 38.4 °F /  3.6 °C 30.00 in /  1015.8 hPa Calm     84 % 0.01 in /  0.25 mm
22:33 42.7 °F /  5.9 °C 38.2 °F /  3.4 °C 30.23 in /  1023.6 hPa Calm   2.3 mph /  3.7 km/h 84 % 0.01 in /  0.25 mm
22:38 42.5 °F /  5.8 °C 38.3 °F /  3.5 °C 30.23 in /  1023.6 hPa Calm     85 % 0.01 in /  0.25 mm
22:43 42.2 °F /  5.7 °C 38.0 °F /  3.3 °C 30.23 in /  1023.6 hPa Calm     85 % 0.01 in /  0.25 mm
22:46 42.1 °F /  5.6 °C 38.2 °F /  3.4 °C 30.23 in /  1023.6 hPa Calm     86 % 0.01 in /  0.25 mm
22:51 41.9 °F /  5.5 °C 38.0 °F /  3.3 °C 30.22 in /  1023.2 hPa Calm     86 % 0.01 in /  0.25 mm
22:56 41.7 °F /  5.4 °C 37.8 °F /  3.2 °C 30.22 in /  1023.2 hPa Calm     86 % 0.01 in /  0.25 mm
23:01 41.6 °F /  5.3 °C 38.0 °F /  3.3 °C 30.23 in /  1023.6 hPa Calm   1.2 mph /  1.9 km/h 87 % 0.00 in /  0 mm
23:07 41.4 °F /  5.2 °C 37.8 °F /  3.2 °C 30.22 in /  1023.2 hPa Calm     87 % 0.00 in /  0 mm
23:12 41.3 °F /  5.2 °C 37.7 °F /  3.2 °C 30.22 in /  1023.2 hPa NE 0.1 mph /  0.2 km/h 1.2 mph /  1.9 km/h 87 % 0.00 in /  0 mm
23:17 41.1 °F /  5.1 °C 37.5 °F /  3.1 °C 30.22 in /  1023.2 hPa Calm   2.3 mph /  3.7 km/h 87 % 0.00 in /  0 mm
23:22 41.0 °F /  5 °C 37.7 °F /  3.2 °C 30.22 in /  1023.2 hPa Calm     88 % 0.00 in /  0 mm
23:27 40.9 °F /  4.9 °C 37.6 °F /  3.1 °C 30.22 in /  1023.2 hPa NE 1.3 mph /  2.1 km/h 2.3 mph /  3.7 km/h 88 % 0.01 in /  0.25 mm
23:32 40.8 °F /  4.9 °C 37.5 °F /  3.1 °C 30.22 in /  1023.2 hPa Calm     88 % 0.01 in /  0.25 mm
23:37 40.7 °F /  4.8 °C 37.7 °F /  3.2 °C 30.23 in /  1023.6 hPa Calm     89 % 0.01 in /  0.25 mm
23:42 40.6 °F /  4.8 °C 37.6 °F /  3.1 °C 30.23 in /  1023.6 hPa NE 2.2 mph /  3.5 km/h 3.0 mph /  4.8 km/h 89 % 0.01 in /  0.25 mm
23:47 40.5 °F /  4.7 °C 37.5 °F /  3.1 °C 30.22 in /  1023.2 hPa Calm     89 % 0.01 in /  0.25 mm
23:52 40.5 °F /  4.7 °C 37.5 °F /  3.1 °C 30.23 in /  1023.6 hPa NE 0.1 mph /  0.2 km/h 2.3 mph /  3.7 km/h 89 % 0.01 in /  0.25 mm
23:57 40.4 °F /  4.7 °C 37.4 °F /  3 °C 30.23 in /  1023.6 hPa NE 1.0 mph /  1.6 km/h 2.3 mph /  3.7 km/h 89 % 0.01 in /  0.25 mm
Crab Meadow Weather
Compliments of Weather Underground - 3 mb

Script developed by  Jim McMurry - jmcmurry@mwt.net Adapted for the template by  Wim van der Kuil - Leuven-Template.eu

Dew Point: The dew point is the temperature to which air must be cooled, at constant barometric pressure, for water vapor to condense into water. The condensed water is called dew. When the dew point temperature falls below freezing it is called the frost point, as the water no longer creates dew but instead creates frost. The dew point is associated with relative humidity. A high relative humidity indicates that the dew point is closer to the current air temperature. If the relative humidity is 100%, the dew point is equal to the current temperature. Given a constant dew point, an increase in temperature will lead to a decrease in relative humidity.